createdAt,value
2018-08-10T00:00:28.526Z,4.00
2018-08-10T00:01:26.359Z,3.80
2018-08-10T00:02:26.526Z,4.20
2018-08-10T00:03:26.548Z,4.10
2018-08-10T00:04:26.551Z,5.00
2018-08-10T00:05:26.381Z,5.20
2018-08-10T00:06:26.064Z,5.00
2018-08-10T00:07:28.153Z,5.10
2018-08-10T00:08:26.531Z,5.10
2018-08-10T00:09:26.535Z,4.90
2018-08-10T00:10:26.549Z,4.60
2018-08-10T00:11:26.055Z,4.70
2018-08-10T00:12:26.340Z,4.20
2018-08-10T00:13:26.527Z,3.60
2018-08-10T00:14:26.550Z,2.90
2018-08-10T00:15:26.530Z,2.60
2018-08-10T00:16:26.548Z,2.50
2018-08-10T00:17:26.539Z,1.70
2018-08-10T00:18:26.340Z,2.30
2018-08-10T00:19:26.315Z,1.70
2018-08-10T00:20:26.383Z,1.90
2018-08-10T00:21:26.310Z,1.70
2018-08-10T00:22:26.535Z,1.70
2018-08-10T00:23:26.316Z,1.40
2018-08-10T00:24:26.552Z,2.70
2018-08-10T00:25:26.540Z,1.50
2018-08-10T00:26:28.247Z,1.60
2018-08-10T00:27:26.303Z,1.40
2018-08-10T00:28:26.318Z,2.70
2018-08-10T00:29:26.533Z,1.80
2018-08-10T00:30:26.573Z,1.10
2018-08-10T00:31:26.559Z,1.10
2018-08-10T00:32:25.728Z,1.30
2018-08-10T00:33:26.554Z,1.10
2018-08-10T00:34:26.557Z,2.40
2018-08-10T00:35:26.439Z,1.30
2018-08-10T00:36:26.536Z,1.30
2018-08-10T00:37:28.544Z,1.10
2018-08-10T00:38:26.552Z,1.00
2018-08-10T00:39:26.348Z,1.50
2018-08-10T00:40:26.558Z,1.20
2018-08-10T00:41:26.537Z,2.00
2018-08-10T00:42:26.898Z,1.30
2018-08-10T00:43:26.312Z,2.60
2018-08-10T00:44:26.351Z,1.50
2018-08-10T00:45:26.348Z,1.70
2018-08-10T00:46:26.445Z,1.10
2018-08-10T00:47:26.321Z,2.10
2018-08-10T00:48:26.399Z,2.30
2018-08-10T00:49:26.391Z,1.20
2018-08-10T00:50:26.547Z,2.50
2018-08-10T00:51:26.382Z,1.40
2018-08-10T00:52:26.565Z,1.80
2018-08-10T00:53:26.563Z,1.20
2018-08-10T00:54:26.618Z,1.50
2018-08-10T00:55:26.316Z,1.90
2018-08-10T00:56:28.540Z,1.70
2018-08-10T00:57:26.628Z,1.10
2018-08-10T00:58:26.322Z,1.50
2018-08-10T00:59:25.981Z,1.30
2018-08-10T01:00:25.995Z,2.20
2018-08-10T01:01:26.044Z,1.40
2018-08-10T01:02:26.057Z,1.00
2018-08-10T01:03:28.055Z,1.20
2018-08-10T01:04:28.052Z,1.40
2018-08-10T01:05:26.043Z,1.20
2018-08-10T01:06:28.043Z,1.30
2018-08-10T01:07:26.035Z,1.80
2018-08-10T01:08:27.877Z,1.40
2018-08-10T01:09:28.067Z,2.80
2018-08-10T01:10:25.673Z,2.20
2018-08-10T01:11:28.036Z,1.30
2018-08-10T01:12:28.090Z,2.80
2018-08-10T01:13:26.136Z,1.70
2018-08-10T01:14:28.553Z,1.90
2018-08-10T01:15:28.085Z,1.60
2018-08-10T01:16:26.147Z,1.90
2018-08-10T01:17:26.066Z,2.20
2018-08-10T01:18:27.893Z,2.10
2018-08-10T01:19:28.060Z,2.60
2018-08-10T01:20:26.111Z,2.80
2018-08-10T01:21:26.058Z,1.70
2018-08-10T01:22:26.064Z,1.50
2018-08-10T01:23:25.926Z,2.10
2018-08-10T01:24:32.593Z,1.80
2018-08-10T01:25:25.997Z,2.70
2018-08-10T01:26:26.324Z,2.00
2018-08-10T01:27:25.981Z,2.50
2018-08-10T01:28:25.980Z,2.00
2018-08-10T01:29:25.965Z,1.80
2018-08-10T01:30:26.073Z,2.90
2018-08-10T01:31:26.073Z,2.10
2018-08-10T01:32:25.904Z,2.10
2018-08-10T01:33:26.077Z,2.30
2018-08-10T01:34:26.076Z,2.80
2018-08-10T01:35:25.929Z,2.00
2018-08-10T01:36:25.985Z,2.50
2018-08-10T01:37:25.916Z,2.90
2018-08-10T01:38:26.042Z,3.00
2018-08-10T01:39:25.995Z,3.70
2018-08-10T01:40:26.004Z,2.90
2018-08-10T01:41:25.987Z,2.60
2018-08-10T01:42:26.053Z,2.80
2018-08-10T01:43:26.132Z,3.30
2018-08-10T01:44:25.978Z,2.60
2018-08-10T01:45:26.061Z,3.20
2018-08-10T01:46:26.065Z,2.10
2018-08-10T01:47:26.055Z,2.60
2018-08-10T01:48:26.020Z,2.50
2018-08-10T01:49:26.013Z,3.90
2018-08-10T01:50:26.036Z,4.20
2018-08-10T01:51:26.055Z,4.70
2018-08-10T01:52:26.325Z,2.40
2018-08-10T01:53:26.361Z,2.80
2018-08-10T01:54:25.996Z,3.70
2018-08-10T01:55:26.032Z,3.30
2018-08-10T01:56:25.917Z,3.00
2018-08-10T01:57:26.013Z,2.60
2018-08-10T01:58:26.052Z,4.90
2018-08-10T01:59:26.062Z,4.00
2018-08-10T02:00:26.066Z,2.80
2018-08-10T02:01:26.566Z,3.70
2018-08-10T02:02:26.060Z,3.40
2018-08-10T02:03:26.041Z,3.30
2018-08-10T02:04:25.643Z,4.50
2018-08-10T02:05:26.067Z,3.90
2018-08-10T02:06:26.163Z,4.10
2018-08-10T02:07:26.066Z,2.90
2018-08-10T02:08:26.075Z,3.60
2018-08-10T02:09:26.084Z,3.90
2018-08-10T02:10:25.893Z,3.50
2018-08-10T02:11:25.982Z,4.30
2018-08-10T02:12:26.430Z,3.70
2018-08-10T02:13:26.143Z,4.40
2018-08-10T02:14:25.930Z,6.50
2018-08-10T02:15:26.067Z,4.70
2018-08-10T02:16:25.566Z,4.10
2018-08-10T02:17:25.902Z,4.40
2018-08-10T02:18:26.060Z,3.80
2018-08-10T02:19:26.028Z,4.60
2018-08-10T02:20:26.115Z,3.30
2018-08-10T02:21:26.065Z,5.20
2018-08-10T02:22:26.073Z,3.90
2018-08-10T02:23:26.002Z,4.20
2018-08-10T02:24:26.057Z,4.80
2018-08-10T02:25:25.958Z,3.90
2018-08-10T02:26:25.921Z,4.10
2018-08-10T02:27:25.940Z,3.60
2018-08-10T02:28:25.605Z,5.70
2018-08-10T02:29:25.865Z,3.90
2018-08-10T02:30:25.914Z,5.70
2018-08-10T02:31:25.847Z,4.70
2018-08-10T02:32:25.858Z,4.30
2018-08-10T02:33:25.880Z,3.80
2018-08-10T02:34:25.594Z,5.90
2018-08-10T02:35:26.098Z,4.70
2018-08-10T02:36:26.113Z,5.80
2018-08-10T02:37:26.140Z,4.80
2018-08-10T02:38:25.610Z,5.90
2018-08-10T02:39:26.008Z,4.50
2018-08-10T02:40:25.927Z,6.00
2018-08-10T02:41:25.537Z,7.20
2018-08-10T02:42:26.122Z,6.90
2018-08-10T02:43:25.882Z,5.60
2018-08-10T02:44:26.079Z,5.20
2018-08-10T02:45:24.481Z,5.70
2018-08-10T02:46:25.959Z,5.00
2018-08-10T02:47:26.071Z,5.50
2018-08-10T02:48:25.944Z,4.10
2018-08-10T02:49:25.852Z,5.40
2018-08-10T02:50:26.063Z,4.10
2018-08-10T02:51:26.118Z,6.10
2018-08-10T02:52:26.072Z,4.20
2018-08-10T02:53:26.071Z,4.00
2018-08-10T02:54:26.068Z,3.70
2018-08-10T02:55:26.081Z,5.50
2018-08-10T02:56:25.921Z,4.30
2018-08-10T02:57:26.081Z,5.30
2018-08-10T02:58:25.868Z,3.40
2018-08-10T02:59:25.865Z,3.40
2018-08-10T03:00:25.845Z,5.30
2018-08-10T03:01:26.081Z,5.70
2018-08-10T03:02:25.873Z,5.10
2018-08-10T03:03:28.124Z,4.00
2018-08-10T03:04:25.850Z,5.10
2018-08-10T03:05:25.890Z,3.60
2018-08-10T03:06:26.103Z,4.20
2018-08-10T03:07:25.852Z,4.80
2018-08-10T03:08:25.853Z,3.70
2018-08-10T03:09:25.903Z,4.50
2018-08-10T03:10:25.875Z,3.50
2018-08-10T03:11:26.100Z,5.20
2018-08-10T03:12:25.902Z,5.20
2018-08-10T03:13:26.100Z,3.20
2018-08-10T03:14:25.610Z,3.40
2018-08-10T03:15:26.101Z,4.60
2018-08-10T03:16:25.873Z,3.40
2018-08-10T03:17:26.070Z,3.10
2018-08-10T03:18:26.086Z,2.90
2018-08-10T03:19:26.098Z,4.80
2018-08-10T03:20:26.108Z,4.80
2018-08-10T03:21:25.908Z,4.00
2018-08-10T03:22:26.106Z,4.40
2018-08-10T03:23:26.107Z,5.20
2018-08-10T03:24:26.109Z,5.70
2018-08-10T03:25:25.968Z,3.70
2018-08-10T03:26:26.080Z,4.50
2018-08-10T03:27:26.091Z,4.20
2018-08-10T03:28:25.910Z,3.20
2018-08-10T03:29:25.883Z,4.50
2018-08-10T03:30:26.131Z,3.90
2018-08-10T03:31:26.102Z,3.30
2018-08-10T03:32:26.131Z,6.70
2018-08-10T03:33:26.102Z,4.40
2018-08-10T03:34:25.886Z,4.30
2018-08-10T03:35:26.101Z,3.80
2018-08-10T03:36:26.106Z,4.10
2018-08-10T03:37:26.104Z,5.20
2018-08-10T03:38:25.927Z,3.90
2018-08-10T03:40:04.600Z,3.90
2018-08-10T03:40:25.903Z,5.30
2018-08-10T03:41:26.088Z,3.30
2018-08-10T03:42:25.889Z,3.50
2018-08-10T03:46:32.279Z,4.30
2018-08-10T03:47:32.588Z,3.50
2018-08-10T03:48:32.587Z,4.40
2018-08-10T03:49:32.782Z,2.50
2018-08-10T03:50:55.329Z,3.70
2018-08-10T03:51:32.302Z,6.20
2018-08-10T03:52:32.639Z,4.00
2018-08-10T03:53:32.799Z,4.40
2018-08-10T03:54:32.808Z,3.40
2018-08-10T03:55:56.388Z,4.80
2018-08-10T03:56:32.184Z,3.70
2018-08-10T03:57:32.632Z,3.00
2018-08-10T03:58:53.055Z,3.40
2018-08-10T03:59:32.593Z,3.50
2018-08-10T04:00:32.808Z,4.40
2018-08-10T04:01:32.836Z,4.50
2018-08-10T04:02:39.881Z,2.70
2018-08-10T04:03:52.814Z,4.50
2018-08-10T04:04:32.835Z,4.20
2018-08-10T04:05:32.627Z,3.70
2018-08-10T04:06:32.805Z,3.90
2018-08-10T04:07:32.161Z,4.30
2018-08-10T04:08:32.809Z,3.40
2018-08-10T04:09:33.149Z,5.60
2018-08-10T04:10:32.359Z,5.00
2018-08-10T04:11:32.679Z,3.00
2018-08-10T04:12:32.615Z,4.20
2018-08-10T04:15:05.830Z,4.40
2018-08-10T04:16:05.429Z,4.90
2018-08-10T04:18:00.046Z,4.20
2018-08-10T04:19:00.776Z,5.50
2018-08-10T04:20:57.177Z,4.10
2018-08-10T04:21:55.873Z,5.70
2018-08-10T04:23:49.515Z,4.80
2018-08-10T04:24:49.528Z,4.70
2018-08-10T04:26:44.312Z,3.90
2018-08-10T04:27:44.612Z,3.50
2018-08-10T04:29:39.252Z,3.40
2018-08-10T04:30:39.606Z,4.20
2018-08-10T04:32:33.481Z,4.90
2018-08-10T04:33:33.948Z,4.40
2018-08-10T04:35:28.572Z,4.50
2018-08-10T04:36:28.857Z,5.10
2018-08-10T04:38:22.823Z,4.00
2018-08-10T04:39:23.001Z,4.40
2018-08-10T04:40:22.478Z,4.00
2018-08-10T04:41:25.186Z,5.10
2018-08-10T04:42:23.006Z,3.80
2018-08-10T04:43:22.981Z,6.00
2018-08-10T04:44:25.644Z,5.20
2018-08-10T04:45:23.195Z,4.80
2018-08-10T04:46:23.010Z,5.20
2018-08-10T04:47:24.740Z,4.40
2018-08-10T04:48:24.984Z,6.20
2018-08-10T04:49:23.204Z,5.90
2018-08-10T04:50:23.198Z,4.80
2018-08-10T04:51:23.026Z,7.00
2018-08-10T04:52:23.040Z,5.20
2018-08-10T04:53:23.039Z,5.90
2018-08-10T04:54:22.941Z,4.40
2018-08-10T04:55:23.225Z,5.20
2018-08-10T04:56:23.154Z,6.40
2018-08-10T04:57:23.643Z,4.70
2018-08-10T04:58:23.155Z,5.00
2018-08-10T04:59:23.268Z,5.70
2018-08-10T05:00:23.489Z,6.10
2018-08-10T05:01:23.523Z,5.50
2018-08-10T05:02:23.254Z,4.50
2018-08-10T05:03:23.518Z,6.20
2018-08-10T05:04:23.151Z,6.40
2018-08-10T05:05:22.887Z,5.70
2018-08-10T05:06:22.963Z,5.20
2018-08-10T05:07:23.150Z,4.90
2018-08-10T05:08:22.994Z,4.30
2018-08-10T05:09:22.935Z,6.50
2018-08-10T05:10:23.156Z,5.30
2018-08-10T05:11:22.931Z,5.40
2018-08-10T05:12:23.207Z,6.40
2018-08-10T05:13:22.755Z,5.70
2018-08-10T05:14:23.219Z,6.70
2018-08-10T05:15:23.251Z,5.20
2018-08-10T05:16:23.019Z,6.60
2018-08-10T05:17:25.160Z,6.00
2018-08-10T05:18:23.258Z,5.00
2018-08-10T05:19:22.936Z,7.60
2018-08-10T05:20:23.642Z,6.90
2018-08-10T05:21:23.179Z,6.20
2018-08-10T05:22:23.617Z,5.10
2018-08-10T05:23:23.254Z,4.60
2018-08-10T05:24:22.661Z,5.30
2018-08-10T05:25:23.505Z,6.00
2018-08-10T05:26:23.171Z,5.70
2018-08-10T05:27:23.035Z,5.10
2018-08-10T05:28:23.210Z,6.20
2018-08-10T05:29:23.591Z,5.40
2018-08-10T05:30:22.970Z,7.70
2018-08-10T05:31:22.999Z,7.90
2018-08-10T05:32:23.225Z,5.30
2018-08-10T05:33:23.178Z,7.50
2018-08-10T05:34:24.758Z,6.50
2018-08-10T05:35:23.175Z,5.90
2018-08-10T05:36:23.158Z,5.10
2018-08-10T05:37:22.700Z,7.00
2018-08-10T05:38:23.263Z,7.20
2018-08-10T05:39:23.187Z,7.00
2018-08-10T05:40:23.514Z,6.60
2018-08-10T05:41:22.701Z,7.90
2018-08-10T05:42:23.213Z,6.60
2018-08-10T05:43:23.861Z,9.10
2018-08-10T05:44:23.261Z,6.30
2018-08-10T05:45:23.162Z,7.00
2018-08-10T05:46:23.252Z,5.70
2018-08-10T05:47:23.516Z,6.50
2018-08-10T05:48:23.321Z,7.00
2018-08-10T05:49:25.176Z,6.40
2018-08-10T05:50:23.284Z,5.80
2018-08-10T05:52:55.940Z,7.20
2018-08-10T05:53:56.334Z,5.90
2018-08-10T05:55:50.080Z,6.30
2018-08-10T05:56:50.465Z,5.30
2018-08-10T05:58:45.649Z,6.40
2018-08-10T05:59:45.103Z,6.20
2018-08-10T06:01:39.726Z,7.10
2018-08-10T06:02:40.229Z,5.70
2018-08-10T06:04:34.383Z,4.80
2018-08-10T06:05:34.783Z,4.90
2018-08-10T06:07:29.096Z,7.60
2018-08-10T06:08:29.029Z,6.50
2018-08-10T06:10:23.853Z,5.90
2018-08-10T06:11:23.938Z,7.00
2018-08-10T06:13:18.100Z,5.30
2018-08-10T06:14:18.241Z,5.30
2018-08-10T06:16:12.936Z,5.30
2018-08-10T06:17:13.719Z,6.00
2018-08-10T06:19:07.577Z,5.10
2018-08-10T06:20:08.378Z,4.60
2018-08-10T06:22:02.702Z,4.50
2018-08-10T06:23:02.672Z,5.00
2018-08-10T06:24:56.827Z,4.50
2018-08-10T06:25:57.301Z,4.70
2018-08-10T06:27:52.098Z,5.40
2018-08-10T06:28:51.917Z,4.70
2018-08-10T06:30:46.549Z,5.70
2018-08-10T06:31:46.731Z,5.00
2018-08-10T06:33:41.311Z,5.90
2018-08-10T06:34:41.291Z,4.70
2018-08-10T06:36:35.526Z,4.10
2018-08-10T06:37:35.702Z,4.20
2018-08-10T06:39:30.421Z,4.50
2018-08-10T06:40:30.808Z,3.30
2018-08-10T06:42:24.647Z,5.60
2018-08-10T06:43:25.045Z,4.60
2018-08-10T06:44:26.824Z,5.40
2018-08-10T06:45:24.860Z,5.90
2018-08-10T06:46:25.156Z,5.10
2018-08-10T06:47:24.177Z,4.00
2018-08-10T06:48:24.964Z,4.00
2018-08-10T06:49:25.455Z,4.50
2018-08-10T06:50:24.938Z,4.80
2018-08-10T06:51:24.883Z,3.80
2018-08-10T06:52:24.099Z,4.50
2018-08-10T06:53:24.602Z,3.90
2018-08-10T06:54:25.100Z,4.00
2018-08-10T06:55:24.645Z,4.50
2018-08-10T06:56:25.149Z,4.60
2018-08-10T06:57:25.008Z,4.70
2018-08-10T06:58:25.465Z,4.80
2018-08-10T06:59:25.630Z,4.10
2018-08-10T07:00:24.995Z,5.10
2018-08-10T07:01:25.213Z,5.20
2018-08-10T07:02:24.897Z,5.10
2018-08-10T07:03:24.608Z,3.40
2018-08-10T07:04:25.102Z,4.30
2018-08-10T07:05:25.009Z,4.10
2018-08-10T07:06:25.104Z,5.10
2018-08-10T07:07:25.145Z,4.50
2018-08-10T07:08:25.130Z,3.70
2018-08-10T07:09:25.107Z,5.50
2018-08-10T07:10:25.202Z,3.60
2018-08-10T07:11:25.469Z,3.30
2018-08-10T07:12:25.024Z,4.40
2018-08-10T07:13:25.348Z,4.80
2018-08-10T07:14:24.893Z,4.90
2018-08-10T07:15:25.214Z,4.10
2018-08-10T07:16:25.146Z,4.40
2018-08-10T07:17:24.874Z,4.00
2018-08-10T07:18:25.206Z,4.60
2018-08-10T07:19:25.205Z,3.50
2018-08-10T07:20:24.970Z,4.20
2018-08-10T07:21:25.253Z,8.10
2018-08-10T07:22:25.205Z,3.90
2018-08-10T07:23:25.109Z,4.80
2018-08-10T07:24:25.173Z,3.60
2018-08-10T07:25:24.940Z,4.50
2018-08-10T07:26:24.674Z,5.60
2018-08-10T07:27:25.115Z,4.60
2018-08-10T07:28:25.180Z,4.90
2018-08-10T07:29:25.232Z,5.70
2018-08-10T07:30:25.137Z,4.10
2018-08-10T07:31:25.119Z,4.30
2018-08-10T07:32:25.109Z,4.60
2018-08-10T07:33:25.115Z,4.60
2018-08-10T07:34:27.455Z,4.10
2018-08-10T07:35:25.155Z,2.80
2018-08-10T07:36:25.136Z,3.30
2018-08-10T07:37:25.213Z,5.10
2018-08-10T07:38:24.981Z,3.10
2018-08-10T07:39:25.270Z,4.20
2018-08-10T07:40:25.133Z,4.30
2018-08-10T07:41:24.670Z,4.70
2018-08-10T07:42:25.119Z,3.90
2018-08-10T07:43:27.124Z,3.60
2018-08-10T07:44:25.566Z,3.70
2018-08-10T07:45:25.136Z,2.60
2018-08-10T07:46:25.166Z,3.30
2018-08-10T07:47:26.131Z,4.40
2018-08-10T07:48:25.181Z,3.40
2018-08-10T07:49:27.185Z,3.90
2018-08-10T07:50:25.477Z,3.80
2018-08-10T07:51:24.999Z,3.10
2018-08-10T07:52:24.940Z,3.20
2018-08-10T07:53:25.218Z,3.90
2018-08-10T07:54:24.891Z,5.40
2018-08-10T07:55:24.960Z,3.10
2018-08-10T07:56:25.015Z,4.60
2018-08-10T07:57:25.221Z,4.20
2018-08-10T07:58:24.675Z,5.00
2018-08-10T07:59:26.691Z,3.50
2018-08-10T08:00:25.598Z,3.50
2018-08-10T08:01:25.116Z,2.90
2018-08-10T08:02:25.607Z,3.00
2018-08-10T08:03:25.143Z,2.80
2018-08-10T08:04:25.119Z,3.80
2018-08-10T08:05:25.232Z,3.50
2018-08-10T08:06:25.129Z,2.80
2018-08-10T08:07:24.961Z,3.00
2018-08-10T08:08:25.427Z,3.00
2018-08-10T08:09:25.174Z,2.90
2018-08-10T08:10:25.185Z,3.20
2018-08-10T08:11:25.243Z,3.10
2018-08-10T08:12:25.604Z,4.70
2018-08-10T08:13:25.221Z,3.30
2018-08-10T08:14:25.592Z,5.40
2018-08-10T08:15:25.123Z,3.80
2018-08-10T08:16:24.372Z,4.10
2018-08-10T08:17:24.901Z,4.10
2018-08-10T08:18:24.676Z,3.20
2018-08-10T08:19:25.173Z,5.20
2018-08-10T08:20:25.193Z,3.90
2018-08-10T08:21:24.675Z,6.10
2018-08-10T08:22:25.491Z,4.30
2018-08-10T08:23:25.177Z,4.50
2018-08-10T08:24:25.009Z,5.40
2018-08-10T08:25:25.146Z,3.50
2018-08-10T08:26:24.899Z,5.00
2018-08-10T08:27:25.154Z,3.50
2018-08-10T08:28:24.717Z,4.40
2018-08-10T08:29:25.227Z,4.80
2018-08-10T08:31:25.974Z,5.10
2018-08-10T08:32:25.132Z,4.80
2018-08-10T08:33:24.968Z,5.30
2018-08-10T08:34:25.127Z,4.80
2018-08-10T08:35:25.168Z,4.80
2018-08-10T08:36:27.094Z,4.60
2018-08-10T08:37:24.668Z,4.10
2018-08-10T08:38:25.518Z,4.40
2018-08-10T08:39:25.508Z,5.30
2018-08-10T08:40:24.393Z,4.20
2018-08-10T08:41:24.739Z,4.50
2018-08-10T08:42:25.208Z,4.50
2018-08-10T08:43:26.505Z,4.50
2018-08-10T08:44:25.179Z,4.50
2018-08-10T08:45:24.796Z,4.90
2018-08-10T08:47:24.509Z,5.30
2018-08-10T08:48:24.591Z,4.00
2018-08-10T08:49:24.959Z,4.80
2018-08-10T08:50:24.641Z,5.20
2018-08-10T08:51:26.642Z,4.70
2018-08-10T08:52:25.101Z,4.00
2018-08-10T08:53:24.952Z,5.10
2018-08-10T08:54:24.698Z,4.60
2018-08-10T08:55:24.759Z,3.90
2018-08-10T08:56:25.133Z,4.20
2018-08-10T08:57:26.993Z,4.90
2018-08-10T08:58:24.656Z,5.50
2018-08-10T08:59:24.658Z,4.60
2018-08-10T09:00:24.677Z,4.90
2018-08-10T09:01:27.033Z,3.10
2018-08-10T09:02:24.297Z,4.40
2018-08-10T09:03:24.623Z,4.30
2018-08-10T09:04:25.130Z,5.30
2018-08-10T09:05:24.644Z,4.30
2018-08-10T09:06:24.998Z,5.00
2018-08-10T09:07:24.820Z,4.80
2018-08-10T09:08:25.087Z,4.50
2018-08-10T09:09:24.704Z,5.80
2018-08-10T09:10:26.508Z,5.40
2018-08-10T09:11:25.112Z,3.20
2018-08-10T09:12:24.943Z,4.90
2018-08-10T09:13:26.987Z,4.10
2018-08-10T09:14:24.702Z,4.50
2018-08-10T09:15:25.145Z,5.30
2018-08-10T09:16:25.107Z,4.90
2018-08-10T09:17:26.725Z,5.10
2018-08-10T09:18:24.645Z,5.80
2018-08-10T09:19:24.638Z,4.70
2018-08-10T09:20:24.648Z,7.40
2018-08-10T09:21:24.644Z,7.30
2018-08-10T09:22:24.495Z,5.30
2018-08-10T09:23:24.834Z,4.70
2018-08-10T09:24:24.706Z,5.70
2018-08-10T09:25:25.090Z,6.00
2018-08-10T09:26:24.552Z,4.80
2018-08-10T09:27:25.003Z,8.10
2018-08-10T09:28:27.007Z,6.30
2018-08-10T09:29:25.224Z,6.50
2018-08-10T09:30:25.178Z,6.10
2018-08-10T09:31:24.324Z,8.10
2018-08-10T09:32:25.201Z,8.70
2018-08-10T09:33:25.177Z,7.70
2018-08-10T09:34:24.361Z,6.40
2018-08-10T09:35:26.518Z,7.60
2018-08-10T09:36:26.675Z,5.70
2018-08-10T09:37:27.007Z,6.70
2018-08-10T09:38:24.710Z,6.70
2018-08-10T09:39:24.658Z,7.60
2018-08-10T09:40:24.711Z,6.30
2018-08-10T09:41:25.123Z,7.70
2018-08-10T09:42:25.000Z,6.80
2018-08-10T09:43:25.105Z,7.30
2018-08-10T09:44:24.723Z,7.00
2018-08-10T09:45:25.187Z,6.80
2018-08-10T09:46:25.209Z,5.70
2018-08-10T09:47:24.659Z,6.60
2018-08-10T09:48:24.726Z,6.00
2018-08-10T09:49:26.755Z,8.00
2018-08-10T09:50:24.495Z,7.90
2018-08-10T09:51:24.932Z,6.80
2018-08-10T09:52:24.942Z,6.90
2018-08-10T09:53:24.728Z,7.40
2018-08-10T09:54:25.208Z,7.10
2018-08-10T09:55:25.180Z,6.50
2018-08-10T09:56:25.016Z,8.10
2018-08-10T09:57:25.155Z,9.20
2018-08-10T09:58:25.211Z,7.50
2018-08-10T09:59:25.210Z,4.80
2018-08-10T10:00:25.090Z,6.90
2018-08-10T10:01:24.572Z,6.90
2018-08-10T10:02:25.215Z,7.00
2018-08-10T10:03:24.769Z,5.60
2018-08-10T10:04:24.301Z,7.00
2018-08-10T10:05:24.711Z,8.20
2018-08-10T10:06:24.669Z,6.30
2018-08-10T10:07:25.434Z,7.50
2018-08-10T10:08:24.736Z,9.00
2018-08-10T10:09:25.235Z,7.00
2018-08-10T10:10:26.525Z,5.60
2018-08-10T10:11:25.230Z,6.70
2018-08-10T10:12:26.539Z,6.00
2018-08-10T10:13:26.566Z,6.90
2018-08-10T10:14:24.307Z,5.10
2018-08-10T10:15:24.670Z,5.10
2018-08-10T10:16:24.803Z,6.00
2018-08-10T10:17:24.745Z,7.70
2018-08-10T10:18:25.103Z,7.90
2018-08-10T10:19:24.388Z,6.60
2018-08-10T10:20:27.139Z,6.20
2018-08-10T10:21:24.561Z,5.60
2018-08-10T10:22:24.666Z,7.00
2018-08-10T10:23:24.669Z,4.30
2018-08-10T10:24:24.286Z,5.50
2018-08-10T10:25:25.029Z,5.30
2018-08-10T10:26:24.623Z,4.90
2018-08-10T10:27:25.108Z,5.50
2018-08-10T10:28:24.737Z,5.70
2018-08-10T10:29:24.685Z,4.50
2018-08-10T10:30:26.653Z,8.80
2018-08-10T10:31:26.730Z,5.40
2018-08-10T10:32:25.212Z,5.00
2018-08-10T10:33:25.248Z,5.50
2018-08-10T10:34:25.188Z,5.40
2018-08-10T10:35:24.758Z,6.20
2018-08-10T10:36:25.029Z,4.90
2018-08-10T10:37:27.071Z,5.90
2018-08-10T10:38:24.811Z,4.60
2018-08-10T10:39:26.584Z,7.10
2018-08-10T10:40:25.252Z,5.00
2018-08-10T10:41:25.143Z,7.70
2018-08-10T10:42:24.564Z,5.50
2018-08-10T10:43:24.903Z,6.50
2018-08-10T10:44:25.573Z,5.40
2018-08-10T10:45:25.243Z,5.70
2018-08-10T10:46:24.509Z,5.00
2018-08-10T10:47:24.941Z,6.30
2018-08-10T10:48:25.180Z,5.00
2018-08-10T10:49:24.732Z,8.20
2018-08-10T10:50:25.106Z,4.20
2018-08-10T10:51:24.681Z,5.50
2018-08-10T10:52:24.676Z,3.60
2018-08-10T10:53:25.105Z,4.80
2018-08-10T10:54:24.646Z,4.10
2018-08-10T10:55:24.847Z,3.80
2018-08-10T10:56:24.717Z,4.80
2018-08-10T10:57:25.164Z,4.20
2018-08-10T10:58:24.681Z,4.50
2018-08-10T10:59:24.748Z,5.40
2018-08-10T11:00:24.686Z,3.40
2018-08-10T11:01:24.737Z,5.00
2018-08-10T11:02:24.791Z,3.80
2018-08-10T11:03:25.296Z,4.40
2018-08-10T11:04:26.682Z,5.40
2018-08-10T11:05:25.247Z,5.00
2018-08-10T11:06:25.415Z,3.70
2018-08-10T11:07:24.335Z,4.00
2018-08-10T11:08:26.506Z,4.40
2018-08-10T11:09:24.905Z,5.30
2018-08-10T11:10:25.060Z,4.30
2018-08-10T11:11:25.239Z,3.10
2018-08-10T11:12:24.431Z,4.00
2018-08-10T11:13:26.579Z,4.50
2018-08-10T11:14:26.888Z,4.10
2018-08-10T11:15:24.911Z,2.70
2018-08-10T11:16:27.157Z,4.10
2018-08-10T11:17:27.101Z,5.50
2018-08-10T11:18:24.801Z,5.40
2018-08-10T11:19:24.786Z,3.20
2018-08-10T11:20:25.265Z,3.00
2018-08-10T11:21:26.718Z,3.40
2018-08-10T11:22:26.694Z,4.70
2018-08-10T11:23:24.699Z,4.20
2018-08-10T11:24:26.717Z,4.70
2018-08-10T11:25:24.845Z,4.70
2018-08-10T11:26:25.205Z,4.20
2018-08-10T11:27:25.260Z,5.30
2018-08-10T11:28:25.210Z,3.80
2018-08-10T11:29:26.481Z,5.10
2018-08-10T11:30:26.623Z,5.70
2018-08-10T11:31:24.699Z,3.70
2018-08-10T11:32:25.198Z,3.10
2018-08-10T11:33:24.998Z,3.50
2018-08-10T11:34:25.189Z,3.30
2018-08-10T11:35:25.031Z,4.70
2018-08-10T11:36:25.098Z,3.00
2018-08-10T11:37:24.717Z,3.30
2018-08-10T11:38:24.658Z,3.60
2018-08-10T11:39:26.758Z,3.30
2018-08-10T11:40:25.064Z,4.80
2018-08-10T11:41:25.493Z,5.20
2018-08-10T11:42:24.963Z,3.60
2018-08-10T11:43:26.623Z,3.60
2018-08-10T11:44:25.384Z,3.50
2018-08-10T11:45:25.162Z,3.80
2018-08-10T11:46:25.218Z,5.10
2018-08-10T11:47:25.245Z,4.50
2018-08-10T11:48:24.362Z,5.10
2018-08-10T11:49:25.336Z,3.70
2018-08-10T11:50:24.770Z,2.60
2018-08-10T11:51:24.784Z,3.90
2018-08-10T11:52:25.269Z,3.40
2018-08-10T11:53:25.345Z,2.70
2018-08-10T11:54:25.563Z,3.10
2018-08-10T11:55:25.300Z,4.50
2018-08-10T11:56:25.749Z,3.20
2018-08-10T11:57:25.274Z,3.70
2018-08-10T11:58:25.212Z,3.60
2018-08-10T11:59:25.257Z,3.00
2018-08-10T12:00:25.654Z,3.70
2018-08-10T12:01:25.576Z,2.90
2018-08-10T12:02:25.207Z,2.90
2018-08-10T12:03:24.759Z,4.60
2018-08-10T12:04:27.337Z,3.40
2018-08-10T12:05:25.932Z,4.20
2018-08-10T12:06:25.210Z,3.40
2018-08-10T12:07:25.600Z,5.50
2018-08-10T12:08:25.594Z,3.60
2018-08-10T12:09:25.275Z,2.40
2018-08-10T12:10:25.217Z,3.40
2018-08-10T12:11:25.325Z,3.40
2018-08-10T12:12:25.628Z,4.20
2018-08-10T12:13:25.562Z,3.10
2018-08-10T12:14:25.216Z,3.60
2018-08-10T12:15:25.266Z,5.30
2018-08-10T12:16:25.578Z,3.80
2018-08-10T12:17:25.572Z,3.00
2018-08-10T12:18:25.581Z,2.80
2018-08-10T12:19:25.574Z,5.20
2018-08-10T12:20:25.782Z,3.30
2018-08-10T12:21:25.338Z,2.90
2018-08-10T12:22:25.321Z,3.30
2018-08-10T12:23:25.059Z,4.40
2018-08-10T12:24:25.325Z,3.20
2018-08-10T12:25:25.058Z,4.30
2018-08-10T12:26:25.456Z,2.00
2018-08-10T12:27:25.363Z,2.60
2018-08-10T12:28:27.579Z,2.20
2018-08-10T12:29:24.746Z,3.30
2018-08-10T12:30:25.362Z,3.30
2018-08-10T12:31:25.224Z,2.90
2018-08-10T12:32:25.088Z,3.30
2018-08-10T12:33:25.227Z,3.50
2018-08-10T12:34:25.164Z,3.10
2018-08-10T12:35:25.253Z,4.30
2018-08-10T12:36:25.168Z,3.10
2018-08-10T12:37:25.278Z,4.60
2018-08-10T12:38:25.308Z,4.30
2018-08-10T12:39:25.586Z,3.60
2018-08-10T12:40:24.735Z,4.50
2018-08-10T12:41:25.747Z,4.20
2018-08-10T12:42:25.337Z,3.40
2018-08-10T12:43:25.795Z,3.30
2018-08-10T12:44:25.115Z,3.20
2018-08-10T12:45:25.304Z,3.20
2018-08-10T12:46:24.833Z,2.50
2018-08-10T12:47:25.234Z,3.10
2018-08-10T12:48:25.084Z,3.50
2018-08-10T12:49:25.243Z,4.10
2018-08-10T12:50:25.819Z,2.90
2018-08-10T12:51:24.779Z,3.50
2018-08-10T12:52:25.245Z,2.20
2018-08-10T12:53:25.598Z,3.20
2018-08-10T12:54:25.862Z,2.70
2018-08-10T12:55:24.810Z,3.50
2018-08-10T12:56:25.334Z,4.00
2018-08-10T12:57:25.485Z,3.10
2018-08-10T12:58:24.999Z,4.40
2018-08-10T12:59:25.603Z,3.90
2018-08-10T13:00:25.247Z,3.00
2018-08-10T13:01:25.290Z,4.00
2018-08-10T13:02:25.875Z,2.40
2018-08-10T13:03:25.374Z,2.20
2018-08-10T13:04:25.624Z,3.20
2018-08-10T13:05:25.887Z,4.10
2018-08-10T13:06:25.367Z,2.60
2018-08-10T13:07:25.635Z,3.30
2018-08-10T13:08:27.317Z,3.60
2018-08-10T13:09:25.576Z,5.70
2018-08-10T13:10:27.297Z,5.60
2018-08-10T13:11:27.700Z,3.80
2018-08-10T13:12:25.255Z,3.40
2018-08-10T13:13:25.277Z,3.90
2018-08-10T13:14:45.829Z,2.60
2018-08-10T13:15:25.853Z,2.10
2018-08-10T13:16:25.580Z,3.20
2018-08-10T13:17:26.251Z,2.80
2018-08-10T13:18:26.324Z,3.50
2018-08-10T13:19:25.862Z,3.00
2018-08-10T13:20:25.758Z,3.80
2018-08-10T13:21:25.782Z,3.90
2018-08-10T13:22:25.857Z,3.20
2018-08-10T13:23:26.211Z,3.20
2018-08-10T13:24:26.216Z,3.90
2018-08-10T13:25:25.813Z,1.70
2018-08-10T13:26:25.818Z,2.70
2018-08-10T13:27:26.119Z,3.10
2018-08-10T13:28:26.120Z,3.90
2018-08-10T13:29:25.861Z,3.10
2018-08-10T13:30:26.242Z,2.10
2018-08-10T13:31:25.765Z,1.90
2018-08-10T13:32:26.321Z,2.20
2018-08-10T13:33:25.644Z,3.60
2018-08-10T13:34:25.921Z,4.30
2018-08-10T13:35:26.372Z,2.80
2018-08-10T13:36:25.771Z,3.40
2018-08-10T13:37:25.624Z,1.90
2018-08-10T13:38:26.130Z,2.30
2018-08-10T13:39:25.843Z,2.40
2018-08-10T13:40:26.126Z,2.90
2018-08-10T13:41:25.823Z,2.80
2018-08-10T13:42:26.222Z,2.30
2018-08-10T13:43:26.171Z,3.60
2018-08-10T13:44:25.627Z,3.30
2018-08-10T13:45:25.772Z,3.70
2018-08-10T13:46:26.466Z,3.60
2018-08-10T13:47:26.250Z,3.00
2018-08-10T13:48:25.604Z,3.30
2018-08-10T13:49:26.130Z,2.60